createdAt,value
2019-04-03T00:00:04.408Z,97327.73
2019-04-03T00:02:32.710Z,97316.31
2019-04-03T00:05:02.976Z,97317.89
2019-04-03T00:07:35.160Z,97320.12
2019-04-03T00:10:04.744Z,97318.72
2019-04-03T00:12:33.893Z,97316.02
2019-04-03T00:15:02.230Z,97312.61
2019-04-03T00:17:30.533Z,97310.33
2019-04-03T00:19:59.006Z,97308.57
2019-04-03T00:22:27.381Z,97308.44
2019-04-03T00:24:55.780Z,97307.69
2019-04-03T00:27:24.244Z,97299.84
2019-04-03T00:29:52.671Z,97298.27
2019-04-03T00:32:21.814Z,97305.34
2019-04-03T00:34:53.098Z,97303.66
2019-04-03T00:37:21.533Z,97301.83
2019-04-03T00:39:53.858Z,97300.66
2019-04-03T00:42:21.276Z,97296.23
2019-04-03T00:44:49.584Z,97293.13
2019-04-03T00:47:18.102Z,97291.16
2019-04-03T00:49:48.147Z,97291.22
2019-04-03T00:52:16.488Z,97293.23
2019-04-03T00:54:45.144Z,97291.61
2019-04-03T00:57:13.479Z,97290.92
2019-04-03T00:59:41.952Z,97285.75
2019-04-03T01:02:10.211Z,97286.80
2019-04-03T01:04:38.674Z,97287.30
2019-04-03T01:07:07.354Z,97287.89
2019-04-03T01:09:35.680Z,97285.87
2019-04-03T01:12:04.165Z,97278.84
2019-04-03T01:14:32.461Z,97276.20
2019-04-03T01:17:03.499Z,97274.27
2019-04-03T01:19:30.886Z,97273.42
2019-04-03T01:21:59.614Z,97262.23
2019-04-03T01:24:27.873Z,97260.64
2019-04-03T01:26:56.193Z,97262.38
2019-04-03T01:29:24.505Z,97260.64
2019-04-03T01:31:52.825Z,97252.02
2019-04-03T01:34:21.139Z,97252.54
2019-04-03T01:36:49.464Z,97252.54
2019-04-03T01:39:19.155Z,97255.49
2019-04-03T01:41:47.829Z,97255.52
2019-04-03T01:44:16.124Z,97253.87
2019-04-03T01:46:44.424Z,97254.70
2019-04-03T01:49:12.961Z,97248.34
2019-04-03T01:51:41.435Z,97246.97
2019-04-03T01:54:09.755Z,97251.10
2019-04-03T01:56:38.061Z,97242.42
2019-04-03T01:59:07.332Z,97239.69
2019-04-03T02:01:36.579Z,97242.35
2019-04-03T02:04:05.922Z,97240.39
2019-04-03T02:06:34.514Z,97234.81
2019-04-03T02:09:04.648Z,97230.22
2019-04-03T02:11:32.968Z,97236.15
2019-04-03T02:14:01.298Z,97239.03
2019-04-03T02:16:29.600Z,97226.91
2019-04-03T02:18:57.914Z,97227.97
2019-04-03T02:21:27.932Z,97225.63
2019-04-03T02:23:56.442Z,97226.05
2019-04-03T02:26:24.776Z,97225.59
2019-04-03T02:28:53.083Z,97222.67
2019-04-03T02:31:21.428Z,97219.55
2019-04-03T02:33:49.744Z,97227.72
2019-04-03T02:36:18.238Z,97218.75
2019-04-03T02:38:46.862Z,97215.06
2019-04-03T02:41:15.660Z,97220.19
2019-04-03T02:43:46.281Z,97219.81
2019-04-03T02:46:14.494Z,97217.89
2019-04-03T02:48:42.916Z,97213.91
2019-04-03T02:51:11.306Z,97217.30
2019-04-03T02:53:39.894Z,97211.87
2019-04-03T02:56:11.567Z,97212.36
2019-04-03T02:58:38.293Z,97210.67
2019-04-03T03:01:07.351Z,97201.47
2019-04-03T03:03:36.433Z,97209.32
2019-04-03T03:06:05.195Z,97201.80
2019-04-03T03:08:33.503Z,97204.30
2019-04-03T03:11:03.537Z,97197.40
2019-04-03T03:13:34.559Z,97201.58
2019-04-03T03:16:03.673Z,97191.66
2019-04-03T03:18:32.081Z,97193.94
2019-04-03T03:21:01.959Z,97195.88
2019-04-03T03:23:30.570Z,97195.05
2019-04-03T03:25:59.069Z,97193.89
2019-04-03T03:28:27.659Z,97191.48
2019-04-03T03:31:02.578Z,97196.95
2019-04-03T03:33:35.554Z,97194.82
2019-04-03T03:35:58.006Z,97193.66
2019-04-03T03:38:28.158Z,97190.80
2019-04-03T03:40:57.033Z,97183.92
2019-04-03T03:43:25.916Z,97187.80
2019-04-03T03:45:54.631Z,97194.51
2019-04-03T03:48:23.367Z,97188.19
2019-04-03T03:50:55.669Z,97186.23
2019-04-03T03:53:22.306Z,97187.60
2019-04-03T03:55:51.023Z,97191.23
2019-04-03T03:58:20.181Z,97184.70
2019-04-03T04:00:52.538Z,97184.70
2019-04-03T04:03:19.233Z,97188.58
2019-04-03T04:05:47.525Z,97178.95
2019-04-03T04:08:16.223Z,97177.70
2019-04-03T04:10:44.638Z,97177.20
2019-04-03T04:13:15.511Z,97174.71
2019-04-03T04:15:44.237Z,97177.16
2019-04-03T04:18:14.774Z,97177.52
2019-04-03T04:20:43.024Z,97182.17
2019-04-03T04:23:11.783Z,97177.28
2019-04-03T04:25:43.462Z,97179.23
2019-04-03T04:28:10.459Z,97183.05
2019-04-03T04:30:38.828Z,97176.86
2019-04-03T04:33:07.136Z,97174.92
2019-04-03T04:35:35.865Z,97179.55
2019-04-03T04:38:04.236Z,97176.70
2019-04-03T04:40:32.622Z,97168.83
2019-04-03T04:43:03.619Z,97175.32
2019-04-03T04:45:33.284Z,97163.17
2019-04-03T04:48:01.312Z,97167.20
2019-04-03T04:50:29.632Z,97163.28
2019-04-03T04:52:58.757Z,97165.43
2019-04-03T04:55:30.422Z,97167.58
2019-04-03T04:57:57.887Z,97169.73
2019-04-03T05:00:29.220Z,97168.52
2019-04-03T05:02:56.251Z,97170.19
2019-04-03T05:05:26.458Z,97169.48
2019-04-03T05:07:55.027Z,97170.09
2019-04-03T05:10:23.272Z,97171.03
2019-04-03T05:12:51.620Z,97169.34
2019-04-03T05:15:23.277Z,97163.52
2019-04-03T05:17:50.565Z,97162.43
2019-04-03T05:20:20.211Z,97166.22
2019-04-03T05:22:48.826Z,97168.26
2019-04-03T05:25:17.943Z,97160.63
2019-04-03T05:27:46.247Z,97162.86
2019-04-03T05:30:23.813Z,97160.80
2019-04-03T05:32:52.133Z,97160.78
2019-04-03T05:35:20.462Z,97153.02
2019-04-03T05:37:50.934Z,97155.73
2019-04-03T05:40:19.355Z,97152.20
2019-04-03T05:42:48.560Z,97151.88
2019-04-03T05:45:17.020Z,97149.20
2019-04-03T05:47:45.369Z,97144.67
2019-04-03T05:50:13.851Z,97145.30
2019-04-03T05:52:42.171Z,97145.00
2019-04-03T05:55:10.907Z,97146.05
2019-04-03T05:57:39.237Z,97142.44
2019-04-03T06:00:07.815Z,97148.19
2019-04-03T06:02:36.307Z,97151.19
2019-04-03T06:05:07.090Z,97152.20
2019-04-03T06:07:36.318Z,97151.72
2019-04-03T06:10:06.505Z,97154.15
2019-04-03T06:12:36.694Z,97156.94
2019-04-03T06:15:09.310Z,97152.06
2019-04-03T06:17:37.896Z,97148.84
2019-04-03T06:20:10.521Z,97143.16
2019-04-03T06:22:37.228Z,97138.21
2019-04-03T06:25:06.803Z,97145.73
2019-04-03T06:27:35.365Z,97136.89
2019-04-03T06:30:07.644Z,97140.34
2019-04-03T06:32:36.106Z,97134.13
2019-04-03T06:35:05.254Z,97128.05
2019-04-03T06:37:33.793Z,97131.57
2019-04-03T06:40:03.301Z,97125.91
2019-04-03T06:42:32.167Z,97124.66
2019-04-03T06:45:00.477Z,97131.52
2019-04-03T06:47:31.845Z,97131.20
2019-04-03T06:49:59.188Z,97125.34
2019-04-03T06:52:27.549Z,97125.83
2019-04-03T06:54:55.830Z,97117.30
2019-04-03T06:57:24.416Z,97123.80
2019-04-03T06:59:52.739Z,97132.92
2019-04-03T07:02:21.113Z,97133.84
2019-04-03T07:04:49.411Z,97133.98
2019-04-03T07:07:31.517Z,97130.49
2019-04-03T07:09:50.325Z,97130.61
2019-04-03T07:12:17.877Z,97123.25
2019-04-03T07:14:46.273Z,97128.04
2019-04-03T07:17:14.590Z,97126.20
2019-04-03T07:19:43.254Z,97120.47
2019-04-03T07:22:12.017Z,97129.55
2019-04-03T07:24:40.348Z,97121.00
2019-04-03T07:27:08.726Z,97116.05
2019-04-03T07:29:37.159Z,97114.16
2019-04-03T07:32:05.857Z,97117.00
2019-04-03T07:34:34.637Z,97112.47
2019-04-03T07:37:03.277Z,97108.08
2019-04-03T07:39:31.918Z,97102.54
2019-04-03T07:42:00.476Z,97107.57
2019-04-03T07:44:29.806Z,97107.92
2019-04-03T07:46:59.522Z,97108.92
2019-04-03T07:49:27.911Z,97103.72
2019-04-03T07:51:56.607Z,97100.48
2019-04-03T07:54:26.803Z,97105.42
2019-04-03T07:56:57.373Z,97096.02
2019-04-03T07:59:24.960Z,97097.59
2019-04-03T08:01:53.270Z,97098.17
2019-04-03T08:04:21.980Z,97105.14
2019-04-03T08:06:51.686Z,97098.87
2019-04-03T08:09:19.989Z,97093.12
2019-04-03T08:11:48.315Z,97091.98
2019-04-03T08:14:19.228Z,97096.25
2019-04-03T08:16:48.200Z,97096.78
2019-04-03T08:19:16.773Z,97095.89
2019-04-03T08:21:45.100Z,97094.62
2019-04-03T08:24:13.404Z,97094.62
2019-04-03T08:26:41.781Z,97099.77
2019-04-03T08:29:10.411Z,97092.30
2019-04-03T08:31:42.506Z,97095.39
2019-04-03T08:34:17.061Z,97102.75
2019-04-03T08:36:39.900Z,97103.13
2019-04-03T08:39:08.790Z,97099.48
2019-04-03T08:41:37.891Z,97098.58
2019-04-03T08:44:08.459Z,97098.05
2019-04-03T08:46:36.589Z,97100.62
2019-04-03T08:49:04.954Z,97098.89
2019-04-03T08:51:33.870Z,97098.30
2019-04-03T08:54:04.269Z,97095.30
2019-04-03T08:56:32.859Z,97087.14
2019-04-03T08:59:01.491Z,97085.67
2019-04-03T09:01:30.255Z,97084.24
2019-04-03T09:03:59.162Z,97085.85
2019-04-03T09:06:27.739Z,97074.70
2019-04-03T09:08:57.849Z,97084.32
2019-04-03T09:11:26.105Z,97078.70
2019-04-03T09:13:55.321Z,97076.23
2019-04-03T09:16:24.571Z,97079.97
2019-04-03T09:18:52.879Z,97067.77
2019-04-03T09:21:21.260Z,97070.48
2019-04-03T09:23:49.575Z,97061.59
2019-04-03T09:26:17.964Z,97065.32
2019-04-03T09:28:46.271Z,97053.23
2019-04-03T09:31:14.649Z,97051.97
2019-04-03T09:33:42.972Z,97053.44
2019-04-03T09:36:12.393Z,97051.73
2019-04-03T09:38:41.789Z,97047.45
2019-04-03T09:41:10.325Z,97044.31
2019-04-03T09:43:39.697Z,97040.15
2019-04-03T09:46:08.924Z,97037.14
2019-04-03T09:48:37.642Z,97043.91
2019-04-03T09:51:09.140Z,97032.58
2019-04-03T09:53:36.551Z,97037.41
2019-04-03T09:56:08.034Z,97040.70
2019-04-03T09:58:35.817Z,97041.03
2019-04-03T10:01:05.037Z,97035.59
2019-04-03T10:03:33.622Z,97028.11
2019-04-03T10:06:02.200Z,97029.04
2019-04-03T10:08:30.509Z,97022.00
2019-04-03T10:10:59.136Z,97019.21
2019-04-03T10:13:27.521Z,97019.72
2019-04-03T10:15:55.981Z,97017.92
2019-04-03T10:18:24.309Z,97009.61
2019-04-03T10:20:52.687Z,97010.52
2019-04-03T10:23:21.115Z,97003.03
2019-04-03T10:25:49.391Z,97001.95
2019-04-03T10:28:19.675Z,96997.52
2019-04-03T10:30:48.006Z,97002.23
2019-04-03T10:33:16.491Z,96999.70
2019-04-03T10:35:47.323Z,97001.05
2019-04-03T10:38:16.125Z,96990.69
2019-04-03T10:40:44.998Z,96994.83
2019-04-03T10:43:13.897Z,96993.20
2019-04-03T10:45:42.651Z,96983.36
2019-04-03T10:48:11.239Z,96983.33
2019-04-03T10:50:39.797Z,96980.07
2019-04-03T10:53:08.171Z,96980.37
2019-04-03T10:55:36.836Z,96977.19
2019-04-03T10:58:07.628Z,96974.20
2019-04-03T11:00:35.996Z,96981.22
2019-04-03T11:03:04.691Z,96978.52
2019-04-03T11:05:33.063Z,96967.31
2019-04-03T11:08:01.521Z,96964.88
2019-04-03T11:10:30.138Z,96964.00
2019-04-03T11:12:58.994Z,96966.91
2019-04-03T11:15:27.321Z,96957.94
2019-04-03T11:17:55.858Z,96958.58
2019-04-03T11:20:24.637Z,96955.61
2019-04-03T11:23:04.122Z,96951.00
2019-04-03T11:25:24.012Z,96952.09
2019-04-03T11:27:52.834Z,96952.68
2019-04-03T11:30:24.618Z,96948.45
2019-04-03T11:32:52.193Z,96947.95
2019-04-03T11:35:21.719Z,96946.99
2019-04-03T11:37:50.666Z,96950.55
2019-04-03T11:40:20.520Z,96948.37
2019-04-03T11:42:48.996Z,96938.34
2019-04-03T11:45:18.157Z,96937.72
2019-04-03T11:47:47.233Z,96935.89
2019-04-03T11:50:17.039Z,96939.47
2019-04-03T11:52:45.742Z,96930.79
2019-04-03T11:55:14.591Z,96925.84
2019-04-03T11:57:43.035Z,96915.77
2019-04-03T12:00:20.361Z,96918.97
2019-04-03T12:02:48.813Z,96912.78
2019-04-03T12:05:20.820Z,96911.36
2019-04-03T12:07:48.178Z,96901.31
2019-04-03T12:10:16.833Z,96901.92
2019-04-03T12:12:45.114Z,96901.02
2019-04-03T12:15:16.233Z,96894.38
2019-04-03T12:17:44.619Z,96894.48
2019-04-03T12:20:15.286Z,96890.99
2019-04-03T12:22:43.479Z,96889.16
2019-04-03T12:25:11.858Z,96892.19
2019-04-03T12:27:40.379Z,96882.80
2019-04-03T12:30:09.565Z,96882.33
2019-04-03T12:32:42.872Z,96887.26
2019-04-03T12:35:09.770Z,96877.44
2019-04-03T12:37:38.733Z,96879.77
2019-04-03T12:40:07.570Z,96870.69
2019-04-03T12:42:35.961Z,96875.77
2019-04-03T12:45:07.458Z,96876.61
2019-04-03T12:47:36.228Z,96869.52
2019-04-03T12:50:07.737Z,96855.66
2019-04-03T12:52:36.505Z,96864.89
2019-04-03T12:55:06.759Z,96860.67
2019-04-03T12:57:38.141Z,96852.86
2019-04-03T13:00:12.759Z,96844.94
2019-04-03T13:02:41.321Z,96850.11
2019-04-03T13:05:10.144Z,96841.05
2019-04-03T13:07:38.521Z,96845.86
2019-04-03T13:10:08.570Z,96843.25
2019-04-03T13:12:37.352Z,96843.41
2019-04-03T13:15:09.269Z,96837.02
2019-04-03T13:17:38.348Z,96832.92
2019-04-03T13:20:08.083Z,96825.10
2019-04-03T13:22:36.828Z,96819.16
2019-04-03T13:25:09.737Z,96820.64
2019-04-03T13:27:38.111Z,96818.17
2019-04-03T13:30:11.457Z,96815.64
2019-04-03T13:32:39.637Z,96815.66
2019-04-03T13:35:08.584Z,96807.08
2019-04-03T13:37:37.284Z,96798.63
2019-04-03T13:40:07.894Z,96797.53
2019-04-03T13:42:36.613Z,96794.53
2019-04-03T13:45:08.223Z,96793.75
2019-04-03T13:47:39.872Z,96793.45
2019-04-03T13:50:08.779Z,96790.73
2019-04-03T13:52:41.012Z,96781.88
2019-04-03T13:55:08.766Z,96774.97
2019-04-03T13:57:37.192Z,96772.10
2019-04-03T14:00:18.369Z,96771.89
2019-04-03T14:02:37.474Z,96779.21
2019-04-03T14:05:08.781Z,96774.16
2019-04-03T14:07:40.475Z,96770.30
2019-04-03T14:10:09.206Z,96760.77
2019-04-03T14:12:41.641Z,96763.37
2019-04-03T14:15:08.520Z,96756.03
2019-04-03T14:17:37.484Z,96758.09
2019-04-03T14:20:07.497Z,96755.88
2019-04-03T14:22:36.068Z,96756.62
2019-04-03T14:25:17.919Z,96760.73
2019-04-03T14:27:36.498Z,96747.59
2019-04-03T14:30:11.595Z,96747.59
2019-04-03T14:32:39.460Z,96745.95
2019-04-03T14:35:34.143Z,96748.30
2019-04-03T14:37:38.829Z,96755.27
2019-04-03T14:40:11.134Z,96746.08
2019-04-03T14:42:38.551Z,96744.33
2019-04-03T14:45:08.960Z,96749.22
2019-04-03T14:47:37.558Z,96735.80
2019-04-03T14:50:10.206Z,96730.31
2019-04-03T14:52:38.647Z,96733.95
2019-04-03T14:55:17.696Z,96727.12
2019-04-03T14:57:38.230Z,96729.81
2019-04-03T15:00:23.006Z,96727.89
2019-04-03T15:02:40.445Z,96722.94
2019-04-03T15:05:09.572Z,96712.62
2019-04-03T15:07:37.948Z,96712.94
2019-04-03T15:10:07.820Z,96709.15
2019-04-03T15:12:38.794Z,96712.80
2019-04-03T15:15:06.944Z,96710.80
2019-04-03T15:17:37.635Z,96705.34
2019-04-03T15:20:08.621Z,96698.16
2019-04-03T15:22:37.176Z,96701.80
2019-04-03T15:25:06.550Z,96698.66
2019-04-03T15:27:34.937Z,96693.47
2019-04-03T15:30:03.981Z,96696.34
2019-04-03T15:32:32.323Z,96689.22
2019-04-03T15:35:01.240Z,96693.94
2019-04-03T15:37:30.445Z,96688.95
2019-04-03T15:39:59.220Z,96677.82
2019-04-03T15:42:27.973Z,96687.69
2019-04-03T15:44:57.697Z,96674.44
2019-04-03T15:47:35.325Z,96677.72
2019-04-03T15:49:58.752Z,96670.64
2019-04-03T15:52:27.472Z,96676.97
2019-04-03T15:54:55.817Z,96671.16
2019-04-03T15:57:24.400Z,96676.80
2019-04-03T15:59:53.354Z,96673.50
2019-04-03T16:02:21.963Z,96670.14
2019-04-03T16:04:50.380Z,96669.55
2019-04-03T16:07:18.648Z,96668.36
2019-04-03T16:09:49.543Z,96668.39
2019-04-03T16:12:17.268Z,96665.39
2019-04-03T16:14:45.569Z,96661.41
2019-04-03T16:17:13.887Z,96661.69
2019-04-03T16:19:43.335Z,96657.31
2019-04-03T16:22:12.402Z,96653.16
2019-04-03T16:24:41.310Z,96649.41
2019-04-03T16:27:10.985Z,96647.12
2019-04-03T16:29:40.376Z,96647.52
2019-04-03T16:32:09.328Z,96646.25
2019-04-03T16:34:40.226Z,96644.80
2019-04-03T16:37:08.181Z,96649.17
2019-04-03T16:39:36.846Z,96651.05
2019-04-03T16:42:05.516Z,96652.61
2019-04-03T16:44:34.008Z,96650.02
2019-04-03T16:47:02.895Z,96644.02
2019-04-03T16:49:31.512Z,96652.69
2019-04-03T16:52:00.033Z,96643.79
2019-04-03T16:54:29.590Z,96644.84
2019-04-03T16:56:58.801Z,96644.55
2019-04-03T16:59:27.882Z,96647.14
2019-04-03T17:01:56.856Z,96647.22
2019-04-03T17:04:27.953Z,96643.69
2019-04-03T17:06:55.688Z,96638.61
2019-04-03T17:09:24.235Z,96639.41
2019-04-03T17:11:52.607Z,96643.77
2019-04-03T17:14:23.137Z,96638.56
2019-04-03T17:16:50.974Z,96639.62
2019-04-03T17:19:19.277Z,96633.93
2019-04-03T17:21:48.121Z,96640.83
2019-04-03T17:24:17.793Z,96635.91
2019-04-03T17:26:50.270Z,96639.56
2019-04-03T17:29:17.131Z,96631.30
2019-04-03T17:31:45.519Z,96628.70
2019-04-03T17:34:13.814Z,96634.84
2019-04-03T17:36:42.206Z,96629.97
2019-04-03T17:39:10.513Z,96632.92
2019-04-03T17:41:39.579Z,96637.36
2019-04-03T17:44:07.888Z,96629.64
2019-04-03T17:46:36.545Z,96640.72
2019-04-03T17:49:05.129Z,96642.78
2019-04-03T17:51:34.101Z,96645.28
2019-04-03T17:54:02.543Z,96645.81
2019-04-03T17:56:30.903Z,96645.20
2019-04-03T17:58:59.199Z,96642.14
2019-04-03T18:01:27.584Z,96646.22
2019-04-03T18:03:56.198Z,96648.53
2019-04-03T18:06:27.166Z,96654.80
2019-04-03T18:08:54.961Z,96663.69
2019-04-03T18:11:23.332Z,96662.02
2019-04-03T18:13:54.644Z,96661.72
2019-04-03T18:16:21.674Z,96663.56
2019-04-03T18:18:50.192Z,96660.11
2019-04-03T18:21:18.617Z,96659.52
2019-04-03T18:23:46.949Z,96664.10
2019-04-03T18:26:15.257Z,96665.31
2019-04-03T18:28:43.620Z,96669.92
2019-04-03T18:31:13.611Z,96668.94
2019-04-03T18:33:42.315Z,96667.92
2019-04-03T18:36:10.624Z,96670.10
2019-04-03T18:38:39.148Z,96675.08
2019-04-03T18:41:07.939Z,96670.59
2019-04-03T18:43:36.517Z,96668.33
2019-04-03T18:46:04.909Z,96669.34
2019-04-03T18:48:33.278Z,96671.29
2019-04-03T18:51:01.618Z,96673.45
2019-04-03T18:53:30.287Z,96675.41
2019-04-03T18:55:58.895Z,96678.25
2019-04-03T18:58:27.264Z,96682.24
2019-04-03T19:00:55.557Z,96680.10
2019-04-03T19:03:23.868Z,96682.72
2019-04-03T19:05:52.185Z,96686.23
2019-04-03T19:08:20.597Z,96680.10
2019-04-03T19:11:01.381Z,96679.61
2019-04-03T19:13:18.960Z,96682.06
2019-04-03T19:15:47.329Z,96684.05
2019-04-03T19:18:19.721Z,96688.85
2019-04-03T19:20:46.087Z,96690.99
2019-04-03T19:23:14.383Z,96689.14
2019-04-03T19:25:42.706Z,96695.10
2019-04-03T19:28:11.320Z,96691.38
2019-04-03T19:30:39.632Z,96694.66
2019-04-03T19:33:07.963Z,96693.78
2019-04-03T19:35:36.291Z,96694.10
2019-04-03T19:38:05.068Z,96686.66
2019-04-03T19:40:33.978Z,96695.86
2019-04-03T19:43:02.746Z,96696.70
2019-04-03T19:45:31.178Z,96694.05
2019-04-03T19:47:59.501Z,96690.76
2019-04-03T19:50:27.804Z,96691.74
2019-04-03T19:52:56.121Z,96683.02
2019-04-03T19:55:24.428Z,96688.02
2019-04-03T19:57:53.175Z,96688.95
2019-04-03T20:00:21.619Z,96685.45
2019-04-03T20:02:49.945Z,96690.86
2019-04-03T20:05:19.441Z,96686.14
2019-04-03T20:07:47.774Z,96697.95
2019-04-03T20:10:16.165Z,96697.04
2019-04-03T20:12:44.469Z,96699.95
2019-04-03T20:15:13.234Z,96695.52
2019-04-03T20:17:41.536Z,96694.20
2019-04-03T20:20:11.554Z,96695.13
2019-04-03T20:22:42.414Z,96699.05
2019-04-03T20:25:09.933Z,96691.69
2019-04-03T20:27:38.351Z,96694.11
2019-04-03T20:30:07.957Z,96690.45
2019-04-03T20:32:36.373Z,96693.58
2019-04-03T20:35:07.160Z,96692.73
2019-04-03T20:37:35.473Z,96697.41
2019-04-03T20:40:05.912Z,96694.53
2019-04-03T20:42:34.177Z,96696.53
2019-04-03T20:45:02.558Z,96700.47
2019-04-03T20:47:30.851Z,96698.44
2019-04-03T20:49:59.173Z,96690.36
2019-04-03T20:52:27.470Z,96699.77
2019-04-03T20:54:55.876Z,96702.22
2019-04-03T20:57:24.191Z,96702.30
2019-04-03T21:00:02.019Z,96698.02
2019-04-03T21:02:23.044Z,96700.77
2019-04-03T21:04:51.559Z,96699.22
2019-04-03T21:07:19.871Z,96696.80
2019-04-03T21:09:48.181Z,96701.76
2019-04-03T21:12:16.498Z,96703.45
2019-04-03T21:14:47.447Z,96703.69
2019-04-03T21:17:14.901Z,96702.05
2019-04-03T21:19:43.208Z,96707.23
2019-04-03T21:22:11.506Z,96702.30
2019-04-03T21:24:39.827Z,96699.72
2019-04-03T21:27:08.787Z,96696.49
2019-04-03T21:29:37.799Z,96698.23
2019-04-03T21:32:06.392Z,96704.34
2019-04-03T21:34:34.716Z,96703.48
2019-04-03T21:37:03.159Z,96705.57
2019-04-03T21:39:33.790Z,96708.20
2019-04-03T21:42:01.861Z,96703.58
2019-04-03T21:44:31.933Z,96709.16
2019-04-03T21:47:00.579Z,96707.75
2019-04-03T21:49:28.942Z,96712.68
2019-04-03T21:51:57.265Z,96703.58
2019-04-03T21:54:26.854Z,96705.91
2019-04-03T21:56:55.616Z,96710.81
2019-04-03T21:59:23.915Z,96703.77
2019-04-03T22:01:52.579Z,96711.30
2019-04-03T22:04:22.850Z,96707.08
2019-04-03T22:06:50.986Z,96708.03
2019-04-03T22:09:19.558Z,96707.33
2019-04-03T22:11:48.171Z,96709.34
2019-04-03T22:14:16.476Z,96709.06
2019-04-03T22:16:44.774Z,96692.71
2019-04-03T22:19:13.826Z,96696.00
2019-04-03T22:21:42.213Z,96696.81
2019-04-03T22:24:10.653Z,96696.39
2019-04-03T22:26:40.794Z,96692.16
2019-04-03T22:29:09.062Z,96703.99
2019-04-03T22:31:37.366Z,96703.42
2019-04-03T22:34:05.745Z,96699.20
2019-04-03T22:36:34.127Z,96698.50
2019-04-03T22:39:02.523Z,96699.53
2019-04-03T22:41:30.828Z,96698.34
2019-04-03T22:43:59.591Z,96700.95
2019-04-03T22:46:27.907Z,96691.91
2019-04-03T22:48:56.205Z,96686.62
2019-04-03T22:51:24.599Z,96697.29
2019-04-03T22:53:52.966Z,96699.16
2019-04-03T22:56:21.285Z,96695.30
2019-04-03T22:58:52.592Z,96698.69
2019-04-03T23:01:19.627Z,96694.83
2019-04-03T23:03:49.362Z,96690.14
2019-04-03T23:06:18.800Z,96691.64
2019-04-03T23:08:47.795Z,96687.11
2019-04-03T23:11:16.434Z,96687.39
2019-04-03T23:13:44.771Z,96682.77
2019-04-03T23:16:13.117Z,96678.20
2019-04-03T23:18:41.750Z,96686.44
2019-04-03T23:21:10.120Z,96679.11
2019-04-03T23:23:38.599Z,96674.65
2019-04-03T23:26:06.904Z,96672.15
2019-04-03T23:28:35.384Z,96670.25
2019-04-03T23:31:03.710Z,96664.69
2019-04-03T23:33:32.447Z,96665.92
2019-04-03T23:36:00.840Z,96676.77
2019-04-03T23:38:29.131Z,96666.16
2019-04-03T23:40:57.447Z,96661.06
2019-04-03T23:43:25.832Z,96660.27
2019-04-03T23:45:54.220Z,96659.67
2019-04-03T23:48:22.595Z,96661.74
2019-04-03T23:50:52.392Z,96664.97
2019-04-03T23:53:21.245Z,96663.45
2019-04-03T23:55:49.543Z,96655.52
2019-04-03T23:58:17.866Z,96654.64
